EZY973R EGKK-EGAA
Flight info
| Callsign | EZY973R |
|---|---|
| Flight time | 1h 3m |
| Altitude | 36000 |
| Route | LAM L10 BPK UN601 LESTA UP6 RODOL UM65 TENSO L603 BELOX DCT REMSI DCT UVPOK M147 ROBOP M146 IPSET P6 BELZU |
| Aircraft | A319/M-SDE3FGHIRWY/LB1 |
Departure
| Time | 2026-04-18 05:40 |
|---|---|
| Airport | London Gatwick Airport (EGKK) |
Arrival
| Time | 2026-04-18 06:43 |
|---|---|
| Airport | Belfast International Airport (EGAA) |
| Time | Latitude | Longitude | Altitude | Speed | Heading |
|---|---|---|---|---|---|
| 2026-04-18 04:58 | 51.15817 | -0.17952 | 213 ft | 0 kts | 78° |
| 2026-04-18 04:59 | 51.15816 | -0.17959 | 217 ft | 0 kts | 78° |
| 2026-04-18 05:31 | 51.15812 | -0.17993 | 210 ft | 4 kts | 82° |
| 2026-04-18 05:31 | 51.15810 | -0.18036 | 209 ft | 4 kts | 98° |
| 2026-04-18 05:32 | 51.15818 | -0.18071 | 211 ft | 4 kts | 148° |
| 2026-04-18 05:32 | 51.15825 | -0.18077 | 214 ft | 0 kts | 167° |
| 2026-04-18 05:35 | 51.15821 | -0.18076 | 215 ft | 2 kts | 167° |
| 2026-04-18 05:35 | 51.15783 | -0.18062 | 210 ft | 6 kts | 167° |
| 2026-04-18 05:36 | 51.15734 | -0.18045 | 214 ft | 8 kts | 167° |
| 2026-04-18 05:36 | 51.15698 | -0.17978 | 205 ft | 10 kts | 86° |
| 2026-04-18 05:36 | 51.15714 | -0.17857 | 205 ft | 12 kts | 79° |
| 2026-04-18 05:36 | 51.15727 | -0.17763 | 205 ft | 14 kts | 77° |
| 2026-04-18 05:37 | 51.15749 | -0.17608 | 213 ft | 12 kts | 78° |
| 2026-04-18 05:37 | 51.15729 | -0.17507 | 208 ft | 12 kts | 162° |
| 2026-04-18 05:37 | 51.15642 | -0.17475 | 205 ft | 14 kts | 167° |
| 2026-04-18 05:37 | 51.15541 | -0.17441 | 208 ft | 16 kts | 168° |
| 2026-04-18 05:38 | 51.15426 | -0.17400 | 212 ft | 18 kts | 167° |
| 2026-04-18 05:38 | 51.15316 | -0.17363 | 205 ft | 15 kts | 168° |
| 2026-04-18 05:38 | 51.15231 | -0.17304 | 212 ft | 14 kts | 146° |
| 2026-04-18 05:38 | 51.15195 | -0.17263 | 210 ft | 1 kts | 144° |
| 2026-04-18 05:39 | 51.15181 | -0.17248 | 212 ft | 3 kts | 144° |
| 2026-04-18 05:39 | 51.15155 | -0.17217 | 206 ft | 6 kts | 138° |
| 2026-04-18 05:39 | 51.15125 | -0.17153 | 212 ft | 8 kts | 144° |
| 2026-04-18 05:39 | 51.15074 | -0.17177 | 213 ft | 10 kts | 240° |
| 2026-04-18 05:40 | 51.15053 | -0.17318 | 212 ft | 26 kts | 257° |
| 2026-04-18 05:40 | 51.14954 | -0.18037 | 211 ft | 104 kts | 257° |
| 2026-04-18 05:40 | 51.14752 | -0.19497 | 248 ft | 158 kts | 258° |
| 2026-04-18 05:40 | 51.14540 | -0.21172 | 920 ft | 155 kts | 259° |
| 2026-04-18 05:41 | 51.14316 | -0.22872 | 1551 ft | 164 kts | 260° |
| 2026-04-18 05:41 | 51.14062 | -0.24763 | 1959 ft | 186 kts | 260° |
| 2026-04-18 05:41 | 51.13780 | -0.26906 | 2376 ft | 209 kts | 262° |
| 2026-04-18 05:41 | 51.13903 | -0.29221 | 3183 ft | 215 kts | 290° |
| 2026-04-18 05:42 | 51.14758 | -0.31177 | 4090 ft | 222 kts | 318° |
| 2026-04-18 05:42 | 51.16191 | -0.32194 | 4980 ft | 236 kts | 348° |
| 2026-04-18 05:42 | 51.17847 | -0.31772 | 5781 ft | 253 kts | 24° |
| 2026-04-18 05:42 | 51.19126 | -0.29805 | 6531 ft | 265 kts | 64° |
| 2026-04-18 05:43 | 51.19664 | -0.26989 | 7310 ft | 268 kts | 81° |
| 2026-04-18 05:43 | 51.20020 | -0.24058 | 8161 ft | 271 kts | 82° |
| 2026-04-18 05:43 | 51.20344 | -0.21081 | 9026 ft | 274 kts | 83° |
| 2026-04-18 05:43 | 51.20684 | -0.17993 | 9558 ft | 295 kts | 82° |
| 2026-04-18 05:44 | 51.21075 | -0.14686 | 10129 ft | 310 kts | 81° |
| 2026-04-18 05:44 | 51.21512 | -0.11224 | 10576 ft | 330 kts | 80° |
| 2026-04-18 05:44 | 51.22014 | -0.07532 | 10989 ft | 349 kts | 76° |
| 2026-04-18 05:44 | 51.23054 | -0.03991 | 11659 ft | 358 kts | 53° |
| 2026-04-18 05:45 | 51.24826 | -0.01211 | 12413 ft | 359 kts | 31° |
| 2026-04-18 05:45 | 51.27101 | 0.00368 | 13067 ft | 356 kts | 8° |
| 2026-04-18 05:45 | 51.29547 | 0.00532 | 13848 ft | 351 kts | 346° |
| 2026-04-18 05:45 | 51.31896 | -0.00405 | 14707 ft | 348 kts | 339° |
| 2026-04-18 05:46 | 51.34238 | -0.01450 | 15469 ft | 351 kts | 339° |
| 2026-04-18 05:46 | 51.36603 | -0.02499 | 16145 ft | 355 kts | 338° |
| 2026-04-18 05:46 | 51.39012 | -0.03504 | 16818 ft | 362 kts | 342° |
| 2026-04-18 05:46 | 51.41533 | -0.04061 | 17494 ft | 369 kts | 347° |
| 2026-04-18 05:47 | 51.44091 | -0.04558 | 18171 ft | 372 kts | 347° |
| 2026-04-18 05:47 | 51.46679 | -0.05069 | 18802 ft | 376 kts | 347° |
| 2026-04-18 05:47 | 51.49289 | -0.05589 | 19396 ft | 379 kts | 346° |
| 2026-04-18 05:47 | 51.51885 | -0.06110 | 19987 ft | 383 kts | 346° |
| 2026-04-18 05:48 | 51.54534 | -0.06649 | 20527 ft | 386 kts | 346° |
| 2026-04-18 05:48 | 51.57213 | -0.07195 | 21121 ft | 389 kts | 346° |
| 2026-04-18 05:48 | 51.59913 | -0.07744 | 21710 ft | 393 kts | 346° |
| 2026-04-18 05:48 | 51.62647 | -0.08293 | 22284 ft | 397 kts | 346° |
| 2026-04-18 05:49 | 51.65403 | -0.08838 | 22871 ft | 401 kts | 346° |
| 2026-04-18 05:49 | 51.68183 | -0.09377 | 23440 ft | 404 kts | 346° |
| 2026-04-18 05:49 | 51.70987 | -0.09916 | 23974 ft | 408 kts | 346° |
| 2026-04-18 05:49 | 51.73768 | -0.10716 | 24449 ft | 404 kts | 337° |
| 2026-04-18 05:50 | 51.76401 | -0.12199 | 24917 ft | 398 kts | 328° |
| 2026-04-18 05:50 | 51.78822 | -0.14295 | 25384 ft | 394 kts | 321° |
| 2026-04-18 05:50 | 51.81190 | -0.16568 | 25892 ft | 397 kts | 321° |
| 2026-04-18 05:50 | 51.83572 | -0.18854 | 26386 ft | 400 kts | 321° |
| 2026-04-18 05:51 | 51.85975 | -0.21155 | 26834 ft | 403 kts | 321° |
| 2026-04-18 05:51 | 51.88397 | -0.23465 | 27289 ft | 405 kts | 321° |
| 2026-04-18 05:51 | 51.90836 | -0.25791 | 27732 ft | 408 kts | 321° |
| 2026-04-18 05:51 | 51.93285 | -0.28130 | 28165 ft | 410 kts | 321° |
| 2026-04-18 05:52 | 51.95751 | -0.30494 | 28603 ft | 413 kts | 321° |
| 2026-04-18 05:52 | 51.98228 | -0.32875 | 29038 ft | 415 kts | 320° |
| 2026-04-18 05:52 | 52.00720 | -0.35274 | 29465 ft | 418 kts | 320° |
| 2026-04-18 05:52 | 52.03226 | -0.37684 | 29890 ft | 420 kts | 320° |
| 2026-04-18 05:53 | 52.05749 | -0.40112 | 30314 ft | 423 kts | 320° |
| 2026-04-18 05:53 | 52.08287 | -0.42563 | 30628 ft | 426 kts | 321° |
| 2026-04-18 05:53 | 52.10839 | -0.45033 | 30939 ft | 429 kts | 321° |
| 2026-04-18 05:53 | 52.13412 | -0.47522 | 31251 ft | 431 kts | 321° |
| 2026-04-18 05:54 | 52.15998 | -0.50023 | 31554 ft | 434 kts | 321° |
| 2026-04-18 05:54 | 52.18597 | -0.52539 | 31914 ft | 434 kts | 321° |
| 2026-04-18 05:54 | 52.21192 | -0.55048 | 32342 ft | 434 kts | 321° |
| 2026-04-18 05:54 | 52.23786 | -0.57565 | 32759 ft | 433 kts | 321° |
| 2026-04-18 05:55 | 52.26374 | -0.60084 | 33175 ft | 433 kts | 321° |
| 2026-04-18 05:55 | 52.28957 | -0.62606 | 33615 ft | 433 kts | 321° |
| 2026-04-18 05:55 | 52.31543 | -0.65138 | 33988 ft | 434 kts | 321° |
| 2026-04-18 05:55 | 52.34133 | -0.67675 | 34337 ft | 434 kts | 322° |
| 2026-04-18 05:56 | 52.36724 | -0.70215 | 34641 ft | 434 kts | 322° |
| 2026-04-18 05:56 | 52.39282 | -0.72726 | 34931 ft | 435 kts | 322° |
| 2026-04-18 05:56 | 52.41878 | -0.75273 | 35213 ft | 435 kts | 322° |
| 2026-04-18 05:56 | 52.44476 | -0.77824 | 35489 ft | 435 kts | 322° |
| 2026-04-18 05:57 | 52.49671 | -0.82943 | 36022 ft | 436 kts | 322° |
| 2026-04-18 05:57 | 52.52275 | -0.85516 | 36161 ft | 438 kts | 322° |
| 2026-04-18 05:58 | 52.57467 | -0.90653 | 36170 ft | 434 kts | 322° |
| 2026-04-18 05:58 | 52.62639 | -0.95792 | 36177 ft | 434 kts | 322° |
| 2026-04-18 05:59 | 52.67807 | -1.00924 | 36191 ft | 434 kts | 322° |
| 2026-04-18 05:59 | 52.72953 | -1.06085 | 36177 ft | 431 kts | 319° |
| 2026-04-18 06:00 | 52.77426 | -1.12422 | 36196 ft | 422 kts | 309° |
| 2026-04-18 06:00 | 52.81681 | -1.19116 | 36179 ft | 422 kts | 309° |
| 2026-04-18 06:01 | 52.85945 | -1.25810 | 36173 ft | 423 kts | 310° |
| 2026-04-18 06:01 | 52.90212 | -1.32519 | 36166 ft | 423 kts | 310° |
| 2026-04-18 06:02 | 52.94470 | -1.39243 | 36162 ft | 423 kts | 309° |
| 2026-04-18 06:02 | 52.98720 | -1.45990 | 36159 ft | 423 kts | 309° |
| 2026-04-18 06:03 | 53.02963 | -1.52760 | 36194 ft | 423 kts | 309° |
| 2026-04-18 06:03 | 53.07213 | -1.59546 | 36174 ft | 424 kts | 309° |
| 2026-04-18 06:04 | 53.11462 | -1.66333 | 36161 ft | 423 kts | 309° |
| 2026-04-18 06:04 | 53.15705 | -1.73136 | 36153 ft | 423 kts | 309° |
| 2026-04-18 06:05 | 53.19914 | -1.79903 | 36149 ft | 423 kts | 309° |
| 2026-04-18 06:05 | 53.24298 | -1.86496 | 36177 ft | 430 kts | 319° |
| 2026-04-18 06:06 | 53.29518 | -1.91602 | 36165 ft | 436 kts | 324° |
| 2026-04-18 06:06 | 53.34807 | -1.96593 | 36161 ft | 437 kts | 324° |
| 2026-04-18 06:07 | 53.40091 | -2.01613 | 36159 ft | 437 kts | 323° |
| 2026-04-18 06:07 | 53.45365 | -2.06655 | 36150 ft | 436 kts | 324° |
| 2026-04-18 06:08 | 53.50642 | -2.11713 | 36143 ft | 437 kts | 324° |
| 2026-04-18 06:08 | 53.55893 | -2.16841 | 36133 ft | 433 kts | 319° |
| 2026-04-18 06:09 | 53.60112 | -2.23714 | 36129 ft | 416 kts | 299° |
| 2026-04-18 06:09 | 53.62694 | -2.32232 | 36127 ft | 406 kts | 286° |
| 2026-04-18 06:10 | 53.64730 | -2.41101 | 36130 ft | 406 kts | 286° |
| 2026-04-18 06:10 | 53.66762 | -2.49981 | 36128 ft | 406 kts | 286° |
| 2026-04-18 06:11 | 53.68783 | -2.58878 | 36127 ft | 406 kts | 285° |
| 2026-04-18 06:11 | 53.70798 | -2.67791 | 36162 ft | 406 kts | 286° |
| 2026-04-18 06:12 | 53.72812 | -2.76712 | 36148 ft | 407 kts | 286° |
| 2026-04-18 06:12 | 53.74834 | -2.85684 | 35638 ft | 410 kts | 286° |
| 2026-04-18 06:12 | 53.75840 | -2.90177 | 35169 ft | 408 kts | 286° |
| 2026-04-18 06:13 | 53.76838 | -2.94650 | 34705 ft | 405 kts | 285° |
| 2026-04-18 06:13 | 53.77826 | -2.99086 | 34257 ft | 401 kts | 285° |
| 2026-04-18 06:13 | 53.78804 | -3.03470 | 33767 ft | 397 kts | 285° |
| 2026-04-18 06:13 | 53.79773 | -3.07820 | 33232 ft | 394 kts | 285° |
| 2026-04-18 06:14 | 53.80729 | -3.12144 | 32709 ft | 391 kts | 284° |
| 2026-04-18 06:14 | 53.81673 | -3.16438 | 32227 ft | 388 kts | 285° |
| 2026-04-18 06:14 | 53.82606 | -3.20698 | 31723 ft | 385 kts | 284° |
| 2026-04-18 06:14 | 53.83535 | -3.24929 | 31219 ft | 382 kts | 284° |
| 2026-04-18 06:15 | 53.84457 | -3.29121 | 30731 ft | 379 kts | 284° |
| 2026-04-18 06:15 | 53.85372 | -3.33286 | 30258 ft | 375 kts | 284° |
| 2026-04-18 06:15 | 53.86277 | -3.37412 | 29679 ft | 372 kts | 284° |
| 2026-04-18 06:15 | 53.87169 | -3.41507 | 29106 ft | 369 kts | 284° |
| 2026-04-18 06:16 | 53.88054 | -3.45578 | 28546 ft | 367 kts | 284° |
| 2026-04-18 06:16 | 53.88933 | -3.49621 | 27995 ft | 364 kts | 284° |
| 2026-04-18 06:16 | 53.89805 | -3.53641 | 27442 ft | 362 kts | 284° |
| 2026-04-18 06:16 | 53.90671 | -3.57639 | 26912 ft | 360 kts | 284° |
| 2026-04-18 06:17 | 53.91533 | -3.61620 | 26397 ft | 359 kts | 284° |
| 2026-04-18 06:17 | 53.92387 | -3.65584 | 25914 ft | 356 kts | 284° |
| 2026-04-18 06:17 | 53.93232 | -3.69522 | 25474 ft | 355 kts | 286° |
| 2026-04-18 06:17 | 53.94072 | -3.73455 | 25010 ft | 354 kts | 286° |
| 2026-04-18 06:18 | 53.94909 | -3.77378 | 24540 ft | 353 kts | 287° |
| 2026-04-18 06:18 | 53.95737 | -3.81292 | 24058 ft | 351 kts | 285° |
| 2026-04-18 06:18 | 53.96273 | -3.85254 | 23562 ft | 347 kts | 276° |
| 2026-04-18 06:18 | 53.96644 | -3.89356 | 22999 ft | 346 kts | 277° |
| 2026-04-18 06:19 | 53.97005 | -3.93391 | 22426 ft | 345 kts | 277° |
| 2026-04-18 06:19 | 53.97356 | -3.97359 | 21885 ft | 344 kts | 277° |
| 2026-04-18 06:19 | 53.97712 | -4.01419 | 21341 ft | 343 kts | 277° |
| 2026-04-18 06:19 | 53.98064 | -4.05426 | 20801 ft | 342 kts | 277° |
| 2026-04-18 06:20 | 53.98409 | -4.09360 | 20285 ft | 341 kts | 278° |
| 2026-04-18 06:20 | 53.98759 | -4.13330 | 19763 ft | 339 kts | 278° |
| 2026-04-18 06:20 | 53.99119 | -4.17279 | 19265 ft | 338 kts | 280° |
| 2026-04-18 06:20 | 53.99796 | -4.21089 | 18764 ft | 337 kts | 292° |
| 2026-04-18 06:21 | 54.00918 | -4.24566 | 18251 ft | 335 kts | 304° |
| 2026-04-18 06:21 | 54.02266 | -4.27793 | 17687 ft | 334 kts | 305° |
| 2026-04-18 06:21 | 54.03597 | -4.30991 | 17272 ft | 329 kts | 304° |
| 2026-04-18 06:21 | 54.04912 | -4.34169 | 16793 ft | 327 kts | 304° |
| 2026-04-18 06:22 | 54.06211 | -4.37326 | 16313 ft | 325 kts | 304° |
| 2026-04-18 06:22 | 54.07499 | -4.40462 | 15831 ft | 322 kts | 303° |
| 2026-04-18 06:22 | 54.08782 | -4.43582 | 15368 ft | 320 kts | 303° |
| 2026-04-18 06:22 | 54.10058 | -4.46680 | 14902 ft | 318 kts | 303° |
| 2026-04-18 06:23 | 54.11325 | -4.49757 | 14472 ft | 316 kts | 303° |
| 2026-04-18 06:23 | 54.12157 | -4.51777 | 14295 ft | 313 kts | 303° |
| 2026-04-18 06:23 | 54.13407 | -4.54818 | 14048 ft | 314 kts | 303° |
| 2026-04-18 06:23 | 54.14657 | -4.57865 | 13805 ft | 313 kts | 302° |
| 2026-04-18 06:24 | 54.15904 | -4.60904 | 13529 ft | 312 kts | 302° |
| 2026-04-18 06:24 | 54.17148 | -4.63936 | 13253 ft | 312 kts | 302° |
| 2026-04-18 06:24 | 54.18387 | -4.66966 | 12980 ft | 310 kts | 302° |
| 2026-04-18 06:24 | 54.19621 | -4.69984 | 12709 ft | 309 kts | 302° |
| 2026-04-18 06:25 | 54.20850 | -4.72987 | 12446 ft | 308 kts | 302° |
| 2026-04-18 06:25 | 54.22074 | -4.75986 | 12181 ft | 307 kts | 302° |
| 2026-04-18 06:25 | 54.23287 | -4.78965 | 11918 ft | 302 kts | 303° |
| 2026-04-18 06:25 | 54.24472 | -4.81872 | 11646 ft | 294 kts | 303° |
| 2026-04-18 06:26 | 54.25623 | -4.84704 | 11385 ft | 286 kts | 303° |
| 2026-04-18 06:26 | 54.26745 | -4.87463 | 11187 ft | 278 kts | 303° |
| 2026-04-18 06:26 | 54.27832 | -4.90141 | 10982 ft | 271 kts | 303° |
| 2026-04-18 06:26 | 54.28901 | -4.92772 | 10780 ft | 268 kts | 303° |
| 2026-04-18 06:27 | 54.29963 | -4.95394 | 10575 ft | 267 kts | 303° |
| 2026-04-18 06:27 | 54.31022 | -4.98010 | 10375 ft | 267 kts | 302° |
| 2026-04-18 06:27 | 54.32071 | -5.00615 | 10173 ft | 266 kts | 302° |
| 2026-04-18 06:27 | 54.33117 | -5.03217 | 9974 ft | 265 kts | 302° |
| 2026-04-18 06:28 | 54.34162 | -5.05813 | 9765 ft | 264 kts | 303° |
| 2026-04-18 06:28 | 54.35204 | -5.08395 | 9536 ft | 263 kts | 303° |
| 2026-04-18 06:28 | 54.36238 | -5.10965 | 9320 ft | 262 kts | 303° |
| 2026-04-18 06:28 | 54.37268 | -5.13537 | 9099 ft | 261 kts | 303° |
| 2026-04-18 06:29 | 54.38294 | -5.16100 | 8865 ft | 260 kts | 303° |
| 2026-04-18 06:29 | 54.39315 | -5.18649 | 8689 ft | 259 kts | 303° |
| 2026-04-18 06:29 | 54.40330 | -5.21187 | 8478 ft | 257 kts | 303° |
| 2026-04-18 06:29 | 54.41340 | -5.23715 | 8269 ft | 256 kts | 303° |
| 2026-04-18 06:30 | 54.42345 | -5.26238 | 8053 ft | 255 kts | 303° |
| 2026-04-18 06:30 | 54.43345 | -5.28749 | 7853 ft | 254 kts | 303° |
| 2026-04-18 06:30 | 54.44341 | -5.31248 | 7641 ft | 253 kts | 303° |
| 2026-04-18 06:30 | 54.45371 | -5.33706 | 7436 ft | 253 kts | 309° |
| 2026-04-18 06:31 | 54.46589 | -5.35888 | 7235 ft | 253 kts | 313° |
| 2026-04-18 06:31 | 54.47837 | -5.38001 | 7022 ft | 251 kts | 314° |
| 2026-04-18 06:31 | 54.49071 | -5.40093 | 6823 ft | 248 kts | 314° |
| 2026-04-18 06:31 | 54.50297 | -5.42178 | 6633 ft | 247 kts | 314° |
| 2026-04-18 06:32 | 54.51514 | -5.44253 | 6453 ft | 246 kts | 314° |
| 2026-04-18 06:32 | 54.52728 | -5.46325 | 6271 ft | 245 kts | 314° |
| 2026-04-18 06:32 | 54.53935 | -5.48386 | 6078 ft | 243 kts | 314° |
| 2026-04-18 06:32 | 54.55106 | -5.50385 | 5894 ft | 232 kts | 314° |
| 2026-04-18 06:33 | 54.56228 | -5.52299 | 5716 ft | 222 kts | 314° |
| 2026-04-18 06:33 | 54.57305 | -5.54137 | 5538 ft | 214 kts | 314° |
| 2026-04-18 06:33 | 54.58348 | -5.55916 | 5354 ft | 209 kts | 314° |
| 2026-04-18 06:33 | 54.59383 | -5.57670 | 5174 ft | 208 kts | 314° |
| 2026-04-18 06:34 | 54.60414 | -5.59415 | 4995 ft | 207 kts | 314° |
| 2026-04-18 06:34 | 54.61439 | -5.61149 | 4839 ft | 206 kts | 314° |
| 2026-04-18 06:34 | 54.62460 | -5.62878 | 4699 ft | 205 kts | 314° |
| 2026-04-18 06:34 | 54.63479 | -5.64600 | 4536 ft | 205 kts | 314° |
| 2026-04-18 06:35 | 54.64494 | -5.66317 | 4397 ft | 204 kts | 314° |
| 2026-04-18 06:35 | 54.65504 | -5.68025 | 4265 ft | 200 kts | 314° |
| 2026-04-18 06:35 | 54.66474 | -5.69663 | 4133 ft | 191 kts | 314° |
| 2026-04-18 06:35 | 54.67404 | -5.71225 | 4006 ft | 184 kts | 314° |
| 2026-04-18 06:36 | 54.68316 | -5.72753 | 3874 ft | 182 kts | 314° |
| 2026-04-18 06:36 | 54.69220 | -5.74271 | 3752 ft | 181 kts | 314° |
| 2026-04-18 06:36 | 54.70121 | -5.75783 | 3685 ft | 180 kts | 314° |
| 2026-04-18 06:36 | 54.71022 | -5.77295 | 3633 ft | 180 kts | 314° |
| 2026-04-18 06:37 | 54.71921 | -5.78806 | 3581 ft | 180 kts | 314° |
| 2026-04-18 06:37 | 54.72818 | -5.80315 | 3528 ft | 180 kts | 314° |
| 2026-04-18 06:37 | 54.73698 | -5.81795 | 3501 ft | 171 kts | 314° |
| 2026-04-18 06:37 | 54.74475 | -5.83332 | 3444 ft | 168 kts | 301° |
| 2026-04-18 06:38 | 54.74879 | -5.85221 | 3396 ft | 169 kts | 282° |
| 2026-04-18 06:38 | 54.74840 | -5.87263 | 3341 ft | 170 kts | 263° |
| 2026-04-18 06:38 | 54.74398 | -5.89168 | 3286 ft | 172 kts | 253° |
| 2026-04-18 06:38 | 54.73901 | -5.91048 | 3237 ft | 171 kts | 253° |
| 2026-04-18 06:39 | 54.73408 | -5.92909 | 3184 ft | 169 kts | 252° |
| 2026-04-18 06:39 | 54.72919 | -5.94753 | 3129 ft | 169 kts | 253° |
| 2026-04-18 06:39 | 54.72428 | -5.96601 | 3024 ft | 168 kts | 252° |
| 2026-04-18 06:39 | 54.71939 | -5.98440 | 2947 ft | 169 kts | 253° |
| 2026-04-18 06:40 | 54.71447 | -6.00287 | 2774 ft | 169 kts | 253° |
| 2026-04-18 06:40 | 54.70956 | -6.02127 | 2559 ft | 168 kts | 253° |
| 2026-04-18 06:40 | 54.70468 | -6.03956 | 2331 ft | 167 kts | 253° |
| 2026-04-18 06:40 | 54.69984 | -6.05767 | 2099 ft | 162 kts | 252° |
| 2026-04-18 06:41 | 54.69534 | -6.07448 | 1892 ft | 152 kts | 252° |
| 2026-04-18 06:41 | 54.69100 | -6.09070 | 1693 ft | 146 kts | 251° |
| 2026-04-18 06:41 | 54.68681 | -6.10637 | 1480 ft | 140 kts | 251° |
| 2026-04-18 06:41 | 54.68280 | -6.12137 | 1288 ft | 135 kts | 250° |
| 2026-04-18 06:42 | 54.67894 | -6.13578 | 1087 ft | 130 kts | 249° |
| 2026-04-18 06:42 | 54.67519 | -6.14980 | 905 ft | 129 kts | 248° |
| 2026-04-18 06:42 | 54.67143 | -6.16382 | 732 ft | 128 kts | 245° |
| 2026-04-18 06:42 | 54.66769 | -6.17788 | 536 ft | 129 kts | 246° |
| 2026-04-18 06:43 | 54.66392 | -6.19187 | 362 ft | 128 kts | 244° |
| 2026-04-18 06:43 | 54.66033 | -6.20529 | 272 ft | 112 kts | 245° |
| 2026-04-18 06:43 | 54.65778 | -6.21481 | 272 ft | 63 kts | 245° |
| 2026-04-18 06:43 | 54.65639 | -6.21990 | 272 ft | 41 kts | 245° |
| 2026-04-18 06:44 | 54.65527 | -6.22409 | 274 ft | 30 kts | 245° |
| 2026-04-18 06:44 | 54.65478 | -6.22604 | 272 ft | 13 kts | 261° |
| 2026-04-18 06:44 | 54.65535 | -6.22715 | 272 ft | 14 kts | 344° |
| 2026-04-18 06:44 | 54.65629 | -6.22769 | 272 ft | 15 kts | 341° |
| 2026-04-18 06:45 | 54.65726 | -6.22777 | 272 ft | 15 kts | 38° |
| 2026-04-18 06:45 | 54.65747 | -6.22605 | 272 ft | 15 kts | 86° |
| 2026-04-18 06:45 | 54.65759 | -6.22417 | 272 ft | 16 kts | 83° |
| 2026-04-18 06:45 | 54.65771 | -6.22230 | 272 ft | 13 kts | 82° |
| 2026-04-18 06:46 | 54.65799 | -6.22072 | 272 ft | 14 kts | 65° |
| 2026-04-18 06:46 | 54.65841 | -6.21920 | 276 ft | 11 kts | 64° |
| 2026-04-18 06:46 | 54.65866 | -6.21826 | 272 ft | 4 kts | 65° |
| 2026-04-18 06:46 | 54.65867 | -6.21823 | 277 ft | 0 kts | 64° |
| 2026-04-18 06:48 | 54.65868 | -6.21819 | 276 ft | 1 kts | 65° |
| 2026-04-18 06:49 | 54.65877 | -6.21784 | 273 ft | 6 kts | 66° |
| 2026-04-18 06:49 | 54.65902 | -6.21691 | 274 ft | 11 kts | 64° |
| 2026-04-18 06:49 | 54.65942 | -6.21544 | 272 ft | 16 kts | 65° |
| 2026-04-18 06:49 | 54.65990 | -6.21369 | 272 ft | 15 kts | 65° |
| 2026-04-18 06:50 | 54.66023 | -6.21244 | 272 ft | 10 kts | 66° |
| 2026-04-18 06:50 | 54.66081 | -6.21226 | 272 ft | 10 kts | 335° |
| 2026-04-18 06:50 | 54.66127 | -6.21286 | 272 ft | 6 kts | 270° |
| 2026-04-18 06:50 | 54.66120 | -6.21316 | 272 ft | 1 kts | 245° |
| 2026-04-18 06:51 | 54.66116 | -6.21330 | 272 ft | 2 kts | 245° |
| 2026-04-18 06:51 | 54.66110 | -6.21352 | 275 ft | 0 kts | 245° |